sensor_id;sensor_type;location;lat;lon;timestamp;temperature;humidity
17053;DHT22;8643;48.824;11.422;2024-03-17T00:01:40;3.50;99.90
17053;DHT22;8643;48.824;11.422;2024-03-17T00:04:07;3.40;99.90
17053;DHT22;8643;48.824;11.422;2024-03-17T00:06:36;3.40;99.90
17053;DHT22;8643;48.824;11.422;2024-03-17T00:09:03;3.30;99.90
17053;DHT22;8643;48.824;11.422;2024-03-17T00:11:32;3.20;99.90
17053;DHT22;8643;48.824;11.422;2024-03-17T00:13:59;3.20;99.90
17053;DHT22;8643;48.824;11.422;2024-03-17T00:16:26;3.40;99.90
17053;DHT22;8643;48.824;11.422;2024-03-17T00:18:53;3.30;99.90
17053;DHT22;8643;48.824;11.422;2024-03-17T00:21:21;3.40;99.90
17053;DHT22;8643;48.824;11.422;2024-03-17T00:23:49;3.70;99.90
17053;DHT22;8643;48.824;11.422;2024-03-17T00:26:17;3.80;99.90
17053;DHT22;8643;48.824;11.422;2024-03-17T00:28:45;3.80;99.90
17053;DHT22;8643;48.824;11.422;2024-03-17T00:31:16;4.00;99.90
17053;DHT22;8643;48.824;11.422;2024-03-17T00:33:43;4.10;99.90
17053;DHT22;8643;48.824;11.422;2024-03-17T00:36:11;4.20;99.90
17053;DHT22;8643;48.824;11.422;2024-03-17T00:38:37;4.30;99.90
17053;DHT22;8643;48.824;11.422;2024-03-17T00:41:06;4.30;99.90
17053;DHT22;8643;48.824;11.422;2024-03-17T00:43:32;4.40;99.90
17053;DHT22;8643;48.824;11.422;2024-03-17T00:48:28;3.30;99.90
17053;DHT22;8643;48.824;11.422;2024-03-17T00:50:56;4.40;99.90
17053;DHT22;8643;48.824;11.422;2024-03-17T00:53:22;4.40;99.90
17053;DHT22;8643;48.824;11.422;2024-03-17T00:55:51;4.40;99.90
17053;DHT22;8643;48.824;11.422;2024-03-17T00:58:20;4.40;99.90
17053;DHT22;8643;48.824;11.422;2024-03-17T01:00:48;4.30;99.90
17053;DHT22;8643;48.824;11.422;2024-03-17T01:03:16;4.20;99.90
17053;DHT22;8643;48.824;11.422;2024-03-17T01:05:45;4.10;99.90
17053;DHT22;8643;48.824;11.422;2024-03-17T01:08:13;4.10;99.90
17053;DHT22;8643;48.824;11.422;2024-03-17T01:10:42;4.00;99.90
17053;DHT22;8643;48.824;11.422;2024-03-17T01:13:09;3.90;99.90
17053;DHT22;8643;48.824;11.422;2024-03-17T01:15:39;3.90;99.90
17053;DHT22;8643;48.824;11.422;2024-03-17T01:18:06;3.80;99.90
17053;DHT22;8643;48.824;11.422;2024-03-17T01:20:35;3.70;99.90
17053;DHT22;8643;48.824;11.422;2024-03-17T01:23:03;3.70;99.90
17053;DHT22;8643;48.824;11.422;2024-03-17T01:25:33;3.80;99.90
17053;DHT22;8643;48.824;11.422;2024-03-17T01:28:03;3.80;99.90
17053;DHT22;8643;48.824;11.422;2024-03-17T01:30:31;3.80;99.90
17053;DHT22;8643;48.824;11.422;2024-03-17T01:33:00;3.80;99.90
17053;DHT22;8643;48.824;11.422;2024-03-17T01:35:28;3.70;99.90
17053;DHT22;8643;48.824;11.422;2024-03-17T01:37:55;3.60;99.90
17053;DHT22;8643;48.824;11.422;2024-03-17T01:40:22;3.50;99.90
17053;DHT22;8643;48.824;11.422;2024-03-17T01:42:49;3.60;99.90
17053;DHT22;8643;48.824;11.422;2024-03-17T01:45:27;3.70;99.90
17053;DHT22;8643;48.824;11.422;2024-03-17T01:47:56;3.80;99.90
17053;DHT22;8643;48.824;11.422;2024-03-17T01:50:28;3.90;99.90
17053;DHT22;8643;48.824;11.422;2024-03-17T01:53:03;3.90;99.90
17053;DHT22;8643;48.824;11.422;2024-03-17T01:55:31;4.10;99.90
17053;DHT22;8643;48.824;11.422;2024-03-17T01:58:00;4.10;99.90
17053;DHT22;8643;48.824;11.422;2024-03-17T02:00:29;4.00;99.90
17053;DHT22;8643;48.824;11.422;2024-03-17T02:02:57;3.90;99.90
17053;DHT22;8643;48.824;11.422;2024-03-17T02:05:23;3.90;99.90
17053;DHT22;8643;48.824;11.422;2024-03-17T02:07:53;3.50;99.90
17053;DHT22;8643;48.824;11.422;2024-03-17T02:10:19;3.30;99.90
17053;DHT22;8643;48.824;11.422;2024-03-17T02:12:47;3.20;99.90
17053;DHT22;8643;48.824;11.422;2024-03-17T02:15:14;3.10;99.90
17053;DHT22;8643;48.824;11.422;2024-03-17T02:17:41;3.00;99.90
17053;DHT22;8643;48.824;11.422;2024-03-17T02:20:08;3.10;99.90
17053;DHT22;8643;48.824;11.422;2024-03-17T02:22:38;3.10;99.90
17053;DHT22;8643;48.824;11.422;2024-03-17T02:25:05;3.10;99.90
17053;DHT22;8643;48.824;11.422;2024-03-17T02:27:35;3.10;99.90
17053;DHT22;8643;48.824;11.422;2024-03-17T02:30:01;3.00;99.90
17053;DHT22;8643;48.824;11.422;2024-03-17T02:32:30;3.10;99.90
17053;DHT22;8643;48.824;11.422;2024-03-17T02:34:57;3.10;99.90
17053;DHT22;8643;48.824;11.422;2024-03-17T02:37:24;3.00;99.90
17053;DHT22;8643;48.824;11.422;2024-03-17T02:39:52;2.90;99.90
17053;DHT22;8643;48.824;11.422;2024-03-17T02:42:20;2.70;99.90
17053;DHT22;8643;48.824;11.422;2024-03-17T02:44:47;2.70;99.90
17053;DHT22;8643;48.824;11.422;2024-03-17T02:47:15;2.60;99.90
17053;DHT22;8643;48.824;11.422;2024-03-17T02:49:42;2.60;99.90
17053;DHT22;8643;48.824;11.422;2024-03-17T02:52:10;2.60;99.90
17053;DHT22;8643;48.824;11.422;2024-03-17T02:54:38;2.60;99.90
17053;DHT22;8643;48.824;11.422;2024-03-17T02:57:07;2.70;99.90
17053;DHT22;8643;48.824;11.422;2024-03-17T02:59:35;2.70;99.90
17053;DHT22;8643;48.824;11.422;2024-03-17T03:02:03;2.70;99.90
17053;DHT22;8643;48.824;11.422;2024-03-17T03:04:31;2.60;99.90
17053;DHT22;8643;48.824;11.422;2024-03-17T03:06:58;2.50;99.90
17053;DHT22;8643;48.824;11.422;2024-03-17T03:09:26;2.50;99.90
17053;DHT22;8643;48.824;11.422;2024-03-17T03:11:57;2.60;99.90
17053;DHT22;8643;48.824;11.422;2024-03-17T03:14:27;2.60;99.90
17053;DHT22;8643;48.824;11.422;2024-03-17T03:16:55;2.70;99.90
17053;DHT22;8643;48.824;11.422;2024-03-17T03:19:22;2.10;99.90
17053;DHT22;8643;48.824;11.422;2024-03-17T03:21:50;2.80;99.90
17053;DHT22;8643;48.824;11.422;2024-03-17T03:24:17;2.80;99.90
17053;DHT22;8643;48.824;11.422;2024-03-17T03:26:45;2.90;99.90
17053;DHT22;8643;48.824;11.422;2024-03-17T03:29:12;3.00;99.90
17053;DHT22;8643;48.824;11.422;2024-03-17T03:31:42;3.00;99.90
17053;DHT22;8643;48.824;11.422;2024-03-17T03:34:10;3.10;99.90
17053;DHT22;8643;48.824;11.422;2024-03-17T03:36:39;3.20;99.90
17053;DHT22;8643;48.824;11.422;2024-03-17T03:39:07;3.30;99.90
17053;DHT22;8643;48.824;11.422;2024-03-17T03:41:37;3.30;99.90
17053;DHT22;8643;48.824;11.422;2024-03-17T03:44:05;3.30;99.90
17053;DHT22;8643;48.824;11.422;2024-03-17T03:46:34;3.50;99.90
17053;DHT22;8643;48.824;11.422;2024-03-17T03:49:03;3.50;99.90
17053;DHT22;8643;48.824;11.422;2024-03-17T03:51:30;3.70;99.90
17053;DHT22;8643;48.824;11.422;2024-03-17T03:53:58;3.60;99.90
17053;DHT22;8643;48.824;11.422;2024-03-17T03:58:55;3.50;99.90
17053;DHT22;8643;48.824;11.422;2024-03-17T04:01:22;3.50;99.90
17053;DHT22;8643;48.824;11.422;2024-03-17T04:03:50;3.50;99.90
17053;DHT22;8643;48.824;11.422;2024-03-17T04:06:19;3.50;99.90
17053;DHT22;8643;48.824;11.422;2024-03-17T04:08:47;3.60;99.90
17053;DHT22;8643;48.824;11.422;2024-03-17T04:11:15;3.60;99.90
17053;DHT22;8643;48.824;11.422;2024-03-17T04:13:43;3.70;99.90
17053;DHT22;8643;48.824;11.422;2024-03-17T04:16:10;3.70;99.90
17053;DHT22;8643;48.824;11.422;2024-03-17T04:18:40;3.70;99.90
17053;DHT22;8643;48.824;11.422;2024-03-17T04:21:08;3.70;99.90
17053;DHT22;8643;48.824;11.422;2024-03-17T04:23:37;3.80;99.90
17053;DHT22;8643;48.824;11.422;2024-03-17T04:26:04;3.80;99.90
17053;DHT22;8643;48.824;11.422;2024-03-17T04:28:34;3.80;99.90
17053;DHT22;8643;48.824;11.422;2024-03-17T04:31:05;3.80;99.90
17053;DHT22;8643;48.824;11.422;2024-03-17T04:33:34;3.80;99.90
17053;DHT22;8643;48.824;11.422;2024-03-17T04:36:02;3.80;99.90
17053;DHT22;8643;48.824;11.422;2024-03-17T04:38:30;3.90;99.90
17053;DHT22;8643;48.824;11.422;2024-03-17T04:40:59;3.90;99.90
17053;DHT22;8643;48.824;11.422;2024-03-17T04:43:31;4.00;99.90
17053;DHT22;8643;48.824;11.422;2024-03-17T04:46:00;3.90;99.90
17053;DHT22;8643;48.824;11.422;2024-03-17T04:48:30;3.90;99.90
17053;DHT22;8643;48.824;11.422;2024-03-17T04:50:58;3.90;99.90
17053;DHT22;8643;48.824;11.422;2024-03-17T04:53:26;4.00;99.90
17053;DHT22;8643;48.824;11.422;2024-03-17T04:56:03;4.00;99.90
17053;DHT22;8643;48.824;11.422;2024-03-17T04:58:32;4.00;99.90
17053;DHT22;8643;48.824;11.422;2024-03-17T05:01:05;4.00;99.90
17053;DHT22;8643;48.824;11.422;2024-03-17T05:03:33;4.10;99.90
17053;DHT22;8643;48.824;11.422;2024-03-17T05:06:01;4.10;99.90
17053;DHT22;8643;48.824;11.422;2024-03-17T05:08:31;4.10;99.90
17053;DHT22;8643;48.824;11.422;2024-03-17T05:11:03;4.10;99.90
17053;DHT22;8643;48.824;11.422;2024-03-17T05:13:32;4.20;99.90
17053;DHT22;8643;48.824;11.422;2024-03-17T05:16:00;4.10;99.90
17053;DHT22;8643;48.824;11.422;2024-03-17T05:18:29;4.10;99.90
17053;DHT22;8643;48.824;11.422;2024-03-17T05:20:59;4.20;99.90
17053;DHT22;8643;48.824;11.422;2024-03-17T05:23:28;4.10;99.90
17053;DHT22;8643;48.824;11.422;2024-03-17T05:25:57;4.30;99.90
17053;DHT22;8643;48.824;11.422;2024-03-17T05:28:28;4.30;99.90
17053;DHT22;8643;48.824;11.422;2024-03-17T05:30:56;4.30;99.90
17053;DHT22;8643;48.824;11.422;2024-03-17T05:33:25;4.30;99.90
17053;DHT22;8643;48.824;11.422;2024-03-17T05:35:54;4.40;99.90
17053;DHT22;8643;48.824;11.422;2024-03-17T05:38:23;4.40;99.90
17053;DHT22;8643;48.824;11.422;2024-03-17T05:40:53;4.50;99.90
17053;DHT22;8643;48.824;11.422;2024-03-17T05:43:22;4.50;99.90
17053;DHT22;8643;48.824;11.422;2024-03-17T05:45:51;4.50;99.90
17053;DHT22;8643;48.824;11.422;2024-03-17T05:48:19;4.50;99.90
17053;DHT22;8643;48.824;11.422;2024-03-17T05:50:48;4.60;99.90
17053;DHT22;8643;48.824;11.422;2024-03-17T05:55:45;4.80;99.90
17053;DHT22;8643;48.824;11.422;2024-03-17T05:58:13;4.80;99.90
17053;DHT22;8643;48.824;11.422;2024-03-17T06:00:40;4.70;99.90
17053;DHT22;8643;48.824;11.422;2024-03-17T06:03:10;4.70;99.90
17053;DHT22;8643;48.824;11.422;2024-03-17T06:05:39;4.70;99.90
17053;DHT22;8643;48.824;11.422;2024-03-17T06:08:07;4.60;99.90
17053;DHT22;8643;48.824;11.422;2024-03-17T06:10:38;4.50;99.90
17053;DHT22;8643;48.824;11.422;2024-03-17T06:13:09;4.40;99.90
17053;DHT22;8643;48.824;11.422;2024-03-17T06:15:39;4.40;99.90
17053;DHT22;8643;48.824;11.422;2024-03-17T06:18:08;4.40;99.90
17053;DHT22;8643;48.824;11.422;2024-03-17T06:20:40;4.40;99.90
17053;DHT22;8643;48.824;11.422;2024-03-17T06:23:09;4.70;99.90
17053;DHT22;8643;48.824;11.422;2024-03-17T06:25:40;4.70;99.90
17053;DHT22;8643;48.824;11.422;2024-03-17T06:28:08;5.10;99.90
17053;DHT22;8643;48.824;11.422;2024-03-17T06:30:39;5.20;99.90
17053;DHT22;8643;48.824;11.422;2024-03-17T06:33:10;5.20;99.90
17053;DHT22;8643;48.824;11.422;2024-03-17T06:35:39;5.20;99.90
17053;DHT22;8643;48.824;11.422;2024-03-17T06:38:06;5.10;99.90
17053;DHT22;8643;48.824;11.422;2024-03-17T06:40:36;5.10;99.90
17053;DHT22;8643;48.824;11.422;2024-03-17T06:43:04;5.10;99.90
17053;DHT22;8643;48.824;11.422;2024-03-17T06:45:32;5.30;99.90
17053;DHT22;8643;48.824;11.422;2024-03-17T06:48:00;5.60;99.90
17053;DHT22;8643;48.824;11.422;2024-03-17T06:50:28;5.50;99.90
17053;DHT22;8643;48.824;11.422;2024-03-17T06:52:56;6.20;99.90
17053;DHT22;8643;48.824;11.422;2024-03-17T06:55:24;6.40;99.90
17053;DHT22;8643;48.824;11.422;2024-03-17T06:57:51;6.70;99.90
17053;DHT22;8643;48.824;11.422;2024-03-17T07:00:19;6.70;99.90
17053;DHT22;8643;48.824;11.422;2024-03-17T07:02:51;7.30;99.90
17053;DHT22;8643;48.824;11.422;2024-03-17T07:05:18;7.30;99.90
17053;DHT22;8643;48.824;11.422;2024-03-17T07:07:47;7.80;99.90
17053;DHT22;8643;48.824;11.422;2024-03-17T07:10:15;7.80;99.90
17053;DHT22;8643;48.824;11.422;2024-03-17T07:12:42;8.20;99.90
17053;DHT22;8643;48.824;11.422;2024-03-17T07:17:38;8.50;99.90
17053;DHT22;8643;48.824;11.422;2024-03-17T07:20:06;8.60;99.90
17053;DHT22;8643;48.824;11.422;2024-03-17T07:22:39;8.80;99.90
17053;DHT22;8643;48.824;11.422;2024-03-17T07:25:08;9.00;99.90
17053;DHT22;8643;48.824;11.422;2024-03-17T07:27:36;9.10;99.90
17053;DHT22;8643;48.824;11.422;2024-03-17T07:30:06;9.20;99.90
17053;DHT22;8643;48.824;11.422;2024-03-17T07:32:35;9.40;99.90
17053;DHT22;8643;48.824;11.422;2024-03-17T07:35:03;9.90;99.90
17053;DHT22;8643;48.824;11.422;2024-03-17T07:37:32;9.80;99.90
17053;DHT22;8643;48.824;11.422;2024-03-17T07:40:00;10.10;99.90
17053;DHT22;8643;48.824;11.422;2024-03-17T07:42:29;10.10;99.90
17053;DHT22;8643;48.824;11.422;2024-03-17T07:44:59;10.20;99.90
17053;DHT22;8643;48.824;11.422;2024-03-17T07:47:26;8.40;99.90
17053;DHT22;8643;48.824;11.422;2024-03-17T07:50:01;9.80;99.90
17053;DHT22;8643;48.824;11.422;2024-03-17T07:52:30;9.80;99.90
17053;DHT22;8643;48.824;11.422;2024-03-17T07:54:58;9.00;99.90
17053;DHT22;8643;48.824;11.422;2024-03-17T07:57:28;10.10;99.90
17053;DHT22;8643;48.824;11.422;2024-03-17T07:59:56;10.50;99.90
17053;DHT22;8643;48.824;11.422;2024-03-17T08:02:23;10.90;99.90
17053;DHT22;8643;48.824;11.422;2024-03-17T08:04:51;11.10;99.90
17053;DHT22;8643;48.824;11.422;2024-03-17T08:07:18;11.10;99.90
17053;DHT22;8643;48.824;11.422;2024-03-17T08:09:46;11.20;99.90
17053;DHT22;8643;48.824;11.422;2024-03-17T08:12:13;11.30;99.90
17053;DHT22;8643;48.824;11.422;2024-03-17T08:14:42;11.30;99.90
17053;DHT22;8643;48.824;11.422;2024-03-17T08:17:10;11.50;99.90
17053;DHT22;8643;48.824;11.422;2024-03-17T08:19:38;12.10;99.90
17053;DHT22;8643;48.824;11.422;2024-03-17T08:22:07;12.30;99.90
17053;DHT22;8643;48.824;11.422;2024-03-17T08:24:34;12.30;99.90
17053;DHT22;8643;48.824;11.422;2024-03-17T08:29:30;12.30;99.90
17053;DHT22;8643;48.824;11.422;2024-03-17T08:31:59;10.80;99.90
17053;DHT22;8643;48.824;11.422;2024-03-17T08:34:26;11.90;99.90
17053;DHT22;8643;48.824;11.422;2024-03-17T08:36:54;12.00;99.90
17053;DHT22;8643;48.824;11.422;2024-03-17T08:39:22;12.10;99.90
17053;DHT22;8643;48.824;11.422;2024-03-17T08:41:49;12.00;99.90
17053;DHT22;8643;48.824;11.422;2024-03-17T08:44:17;12.00;99.90
17053;DHT22;8643;48.824;11.422;2024-03-17T08:46:45;12.40;99.90
17053;DHT22;8643;48.824;11.422;2024-03-17T08:49:13;12.30;99.90
17053;DHT22;8643;48.824;11.422;2024-03-17T08:51:41;12.50;99.90
17053;DHT22;8643;48.824;11.422;2024-03-17T08:54:08;12.70;99.90
17053;DHT22;8643;48.824;11.422;2024-03-17T08:56:36;12.90;99.90
17053;DHT22;8643;48.824;11.422;2024-03-17T08:59:03;13.10;99.90
17053;DHT22;8643;48.824;11.422;2024-03-17T09:01:31;13.30;99.90
17053;DHT22;8643;48.824;11.422;2024-03-17T09:03:58;13.30;99.90
17053;DHT22;8643;48.824;11.422;2024-03-17T09:06:28;13.40;99.90
17053;DHT22;8643;48.824;11.422;2024-03-17T09:08:56;13.30;99.90
17053;DHT22;8643;48.824;11.422;2024-03-17T09:11:23;13.30;99.90
17053;DHT22;8643;48.824;11.422;2024-03-17T09:16:21;13.70;99.90
17053;DHT22;8643;48.824;11.422;2024-03-17T09:18:51;13.70;99.90
17053;DHT22;8643;48.824;11.422;2024-03-17T09:21:18;14.10;99.90
17053;DHT22;8643;48.824;11.422;2024-03-17T09:23:47;14.20;99.90
17053;DHT22;8643;48.824;11.422;2024-03-17T09:26:15;14.30;99.90
17053;DHT22;8643;48.824;11.422;2024-03-17T09:28:43;14.40;99.90
17053;DHT22;8643;48.824;11.422;2024-03-17T09:31:11;14.40;99.90
17053;DHT22;8643;48.824;11.422;2024-03-17T09:33:39;14.50;99.90
17053;DHT22;8643;48.824;11.422;2024-03-17T09:36:08;14.80;99.90
17053;DHT22;8643;48.824;11.422;2024-03-17T09:38:37;14.70;99.90
17053;DHT22;8643;48.824;11.422;2024-03-17T09:41:07;15.10;99.90
17053;DHT22;8643;48.824;11.422;2024-03-17T09:43:42;14.80;99.90
17053;DHT22;8643;48.824;11.422;2024-03-17T09:46:12;15.10;99.90
17053;DHT22;8643;48.824;11.422;2024-03-17T09:48:42;15.50;99.90
17053;DHT22;8643;48.824;11.422;2024-03-17T09:51:18;16.00;99.90
17053;DHT22;8643;48.824;11.422;2024-03-17T09:53:48;15.80;99.90
17053;DHT22;8643;48.824;11.422;2024-03-17T09:56:18;15.90;99.90
17053;DHT22;8643;48.824;11.422;2024-03-17T09:58:48;15.90;99.90
17053;DHT22;8643;48.824;11.422;2024-03-17T10:01:16;15.90;99.90
17053;DHT22;8643;48.824;11.422;2024-03-17T10:03:45;15.90;98.90
17053;DHT22;8643;48.824;11.422;2024-03-17T10:06:18;16.20;99.90
17053;DHT22;8643;48.824;11.422;2024-03-17T10:08:47;16.50;99.10
17053;DHT22;8643;48.824;11.422;2024-03-17T10:11:19;16.60;99.10
17053;DHT22;8643;48.824;11.422;2024-03-17T10:13:59;16.70;98.00
17053;DHT22;8643;48.824;11.422;2024-03-17T10:16:29;16.70;97.70
17053;DHT22;8643;48.824;11.422;2024-03-17T10:19:06;17.80;93.70
17053;DHT22;8643;48.824;11.422;2024-03-17T10:21:36;18.20;96.10
17053;DHT22;8643;48.824;11.422;2024-03-17T10:24:09;18.20;93.60
17053;DHT22;8643;48.824;11.422;2024-03-17T10:26:41;18.20;93.70
17053;DHT22;8643;48.824;11.422;2024-03-17T10:29:20;18.60;91.70
17053;DHT22;8643;48.824;11.422;2024-03-17T10:31:50;18.60;91.40
17053;DHT22;8643;48.824;11.422;2024-03-17T10:34:19;18.20;91.30
17053;DHT22;8643;48.824;11.422;2024-03-17T10:36:51;18.10;92.20
17053;DHT22;8643;48.824;11.422;2024-03-17T10:39:26;18.40;90.60
17053;DHT22;8643;48.824;11.422;2024-03-17T10:42:01;19.00;89.60
17053;DHT22;8643;48.824;11.422;2024-03-17T10:44:29;20.20;81.70
17053;DHT22;8643;48.824;11.422;2024-03-17T10:46:59;20.70;77.50
17053;DHT22;8643;48.824;11.422;2024-03-17T10:49:29;20.70;78.00
17053;DHT22;8643;48.824;11.422;2024-03-17T10:52:00;21.00;74.80
17053;DHT22;8643;48.824;11.422;2024-03-17T10:54:30;20.70;71.60
17053;DHT22;8643;48.824;11.422;2024-03-17T10:57:07;19.40;75.90
17053;DHT22;8643;48.824;11.422;2024-03-17T10:59:47;18.00;79.80
17053;DHT22;8643;48.824;11.422;2024-03-17T11:02:21;17.90;80.00
17053;DHT22;8643;48.824;11.422;2024-03-17T11:04:55;17.30;86.40
17053;DHT22;8643;48.824;11.422;2024-03-17T11:07:26;16.00;85.20
17053;DHT22;8643;48.824;11.422;2024-03-17T11:09:55;15.60;88.90
17053;DHT22;8643;48.824;11.422;2024-03-17T11:12:43;15.60;90.40
17053;DHT22;8643;48.824;11.422;2024-03-17T11:15:37;15.20;90.60
17053;DHT22;8643;48.824;11.422;2024-03-17T11:18:34;14.90;90.80
17053;DHT22;8643;48.824;11.422;2024-03-17T11:21:05;14.50;92.60
17053;DHT22;8643;48.824;11.422;2024-03-17T11:23:37;14.40;93.60
17053;DHT22;8643;48.824;11.422;2024-03-17T11:26:06;14.30;94.10
17053;DHT22;8643;48.824;11.422;2024-03-17T11:28:51;14.80;92.50
17053;DHT22;8643;48.824;11.422;2024-03-17T11:34:35;15.10;92.60
17053;DHT22;8643;48.824;11.422;2024-03-17T11:37:06;15.80;90.80
17053;DHT22;8643;48.824;11.422;2024-03-17T11:39:50;15.90;89.90
17053;DHT22;8643;48.824;11.422;2024-03-17T11:42:23;15.90;90.70
17053;DHT22;8643;48.824;11.422;2024-03-17T11:44:59;16.70;88.90
17053;DHT22;8643;48.824;11.422;2024-03-17T11:47:34;17.10;86.80
17053;DHT22;8643;48.824;11.422;2024-03-17T11:50:07;17.00;83.20
17053;DHT22;8643;48.824;11.422;2024-03-17T11:52:37;17.10;85.90
17053;DHT22;8643;48.824;11.422;2024-03-17T11:55:15;17.10;87.10
17053;DHT22;8643;48.824;11.422;2024-03-17T11:57:43;17.70;82.50
17053;DHT22;8643;48.824;11.422;2024-03-17T12:00:22;18.70;84.60
17053;DHT22;8643;48.824;11.422;2024-03-17T12:02:50;18.90;80.50
17053;DHT22;8643;48.824;11.422;2024-03-17T12:05:19;19.10;78.10
17053;DHT22;8643;48.824;11.422;2024-03-17T12:07:47;19.20;78.80
17053;DHT22;8643;48.824;11.422;2024-03-17T12:10:16;18.80;81.40
17053;DHT22;8643;48.824;11.422;2024-03-17T12:12:47;16.90;78.70
17053;DHT22;8643;48.824;11.422;2024-03-17T12:15:17;17.70;78.60
17053;DHT22;8643;48.824;11.422;2024-03-17T12:17:46;17.20;82.60
17053;DHT22;8643;48.824;11.422;2024-03-17T12:20:20;17.20;83.70
17053;DHT22;8643;48.824;11.422;2024-03-17T12:22:47;16.90;84.60
17053;DHT22;8643;48.824;11.422;2024-03-17T12:25:18;16.60;85.80
17053;DHT22;8643;48.824;11.422;2024-03-17T12:27:47;16.70;86.50
17053;DHT22;8643;48.824;11.422;2024-03-17T12:30:15;16.60;85.20
17053;DHT22;8643;48.824;11.422;2024-03-17T12:32:44;16.90;85.90
17053;DHT22;8643;48.824;11.422;2024-03-17T12:35:15;17.40;82.70
17053;DHT22;8643;48.824;11.422;2024-03-17T12:37:44;17.90;81.40
17053;DHT22;8643;48.824;11.422;2024-03-17T12:40:20;17.90;84.80
17053;DHT22;8643;48.824;11.422;2024-03-17T12:42:48;19.10;78.50
17053;DHT22;8643;48.824;11.422;2024-03-17T12:45:20;19.20;78.90
17053;DHT22;8643;48.824;11.422;2024-03-17T12:47:50;19.20;76.30
17053;DHT22;8643;48.824;11.422;2024-03-17T12:50:18;18.60;75.10
17053;DHT22;8643;48.824;11.422;2024-03-17T12:52:52;18.10;79.50
17053;DHT22;8643;48.824;11.422;2024-03-17T12:55:22;17.70;79.60
17053;DHT22;8643;48.824;11.422;2024-03-17T12:58:08;16.90;81.00
17053;DHT22;8643;48.824;11.422;2024-03-17T13:00:59;16.60;82.20
17053;DHT22;8643;48.824;11.422;2024-03-17T13:03:32;16.70;83.50
17053;DHT22;8643;48.824;11.422;2024-03-17T13:06:00;16.60;85.30
17053;DHT22;8643;48.824;11.422;2024-03-17T13:08:28;17.00;82.50
17053;DHT22;8643;48.824;11.422;2024-03-17T13:10:57;17.10;83.80
17053;DHT22;8643;48.824;11.422;2024-03-17T13:13:25;17.10;81.80
17053;DHT22;8643;48.824;11.422;2024-03-17T13:15:52;17.20;83.60
17053;DHT22;8643;48.824;11.422;2024-03-17T13:18:20;17.30;82.70
17053;DHT22;8643;48.824;11.422;2024-03-17T13:20:50;17.40;81.90
17053;DHT22;8643;48.824;11.422;2024-03-17T13:23:19;17.00;84.30
17053;DHT22;8643;48.824;11.422;2024-03-17T13:25:47;16.80;83.40
17053;DHT22;8643;48.824;11.422;2024-03-17T13:28:15;16.70;84.80
17053;DHT22;8643;48.824;11.422;2024-03-17T13:30:43;16.70;84.60
17053;DHT22;8643;48.824;11.422;2024-03-17T13:33:13;16.90;84.80
17053;DHT22;8643;48.824;11.422;2024-03-17T13:35:41;16.60;85.20
17053;DHT22;8643;48.824;11.422;2024-03-17T13:38:11;16.30;86.30
17053;DHT22;8643;48.824;11.422;2024-03-17T13:40:40;16.10;86.20
17053;DHT22;8643;48.824;11.422;2024-03-17T13:43:09;16.00;86.20
17053;DHT22;8643;48.824;11.422;2024-03-17T13:45:38;15.80;85.80
17053;DHT22;8643;48.824;11.422;2024-03-17T13:48:09;15.80;86.80
17053;DHT22;8643;48.824;11.422;2024-03-17T13:50:36;15.90;86.00
17053;DHT22;8643;48.824;11.422;2024-03-17T13:53:08;15.80;86.30
17053;DHT22;8643;48.824;11.422;2024-03-17T13:55:37;15.80;86.40
17053;DHT22;8643;48.824;11.422;2024-03-17T13:58:05;15.80;86.80
17053;DHT22;8643;48.824;11.422;2024-03-17T14:00:32;15.70;88.70
17053;DHT22;8643;48.824;11.422;2024-03-17T14:03:04;15.50;87.90
17053;DHT22;8643;48.824;11.422;2024-03-17T14:05:32;15.60;88.40
17053;DHT22;8643;48.824;11.422;2024-03-17T14:08:00;15.20;88.90
17053;DHT22;8643;48.824;11.422;2024-03-17T14:10:30;15.00;88.20
17053;DHT22;8643;48.824;11.422;2024-03-17T14:12:59;14.70;90.50
17053;DHT22;8643;48.824;11.422;2024-03-17T14:15:26;14.60;91.10
17053;DHT22;8643;48.824;11.422;2024-03-17T14:17:54;14.60;91.30
17053;DHT22;8643;48.824;11.422;2024-03-17T14:20:22;14.70;91.00
17053;DHT22;8643;48.824;11.422;2024-03-17T14:22:49;13.40;91.00
17053;DHT22;8643;48.824;11.422;2024-03-17T14:25:19;14.70;91.70
17053;DHT22;8643;48.824;11.422;2024-03-17T14:27:47;14.60;91.80
17053;DHT22;8643;48.824;11.422;2024-03-17T14:30:18;14.80;89.40
17053;DHT22;8643;48.824;11.422;2024-03-17T14:32:46;14.80;90.70
17053;DHT22;8643;48.824;11.422;2024-03-17T14:35:17;14.80;91.00
17053;DHT22;8643;48.824;11.422;2024-03-17T14:37:50;14.80;90.60
17053;DHT22;8643;48.824;11.422;2024-03-17T14:40:19;14.80;90.40
17053;DHT22;8643;48.824;11.422;2024-03-17T14:42:49;14.80;90.70
17053;DHT22;8643;48.824;11.422;2024-03-17T14:45:20;14.40;91.10
17053;DHT22;8643;48.824;11.422;2024-03-17T14:47:49;14.50;91.20
17053;DHT22;8643;48.824;11.422;2024-03-17T14:50:18;14.40;92.00
17053;DHT22;8643;48.824;11.422;2024-03-17T14:52:45;14.40;90.90
17053;DHT22;8643;48.824;11.422;2024-03-17T14:55:14;14.30;92.00
17053;DHT22;8643;48.824;11.422;2024-03-17T14:57:41;14.30;92.20
17053;DHT22;8643;48.824;11.422;2024-03-17T15:00:11;14.30;91.50
17053;DHT22;8643;48.824;11.422;2024-03-17T15:02:46;14.20;92.80
17053;DHT22;8643;48.824;11.422;2024-03-17T15:05:15;14.20;93.00
17053;DHT22;8643;48.824;11.422;2024-03-17T15:07:44;13.90;92.30
17053;DHT22;8643;48.824;11.422;2024-03-17T15:10:12;13.90;92.20
17053;DHT22;8643;48.824;11.422;2024-03-17T15:12:40;13.90;92.40
17053;DHT22;8643;48.824;11.422;2024-03-17T15:15:08;13.60;93.50
17053;DHT22;8643;48.824;11.422;2024-03-17T15:17:36;13.50;93.70
17053;DHT22;8643;48.824;11.422;2024-03-17T15:20:06;13.50;93.90
17053;DHT22;8643;48.824;11.422;2024-03-17T15:22:42;13.40;94.50
17053;DHT22;8643;48.824;11.422;2024-03-17T15:25:10;13.40;94.40
17053;DHT22;8643;48.824;11.422;2024-03-17T15:27:39;13.30;94.70
17053;DHT22;8643;48.824;11.422;2024-03-17T15:30:10;13.20;95.60
17053;DHT22;8643;48.824;11.422;2024-03-17T15:32:41;13.10;95.50
17053;DHT22;8643;48.824;11.422;2024-03-17T15:35:11;13.00;95.40
17053;DHT22;8643;48.824;11.422;2024-03-17T15:37:40;13.00;95.60
17053;DHT22;8643;48.824;11.422;2024-03-17T15:40:09;13.00;95.80
17053;DHT22;8643;48.824;11.422;2024-03-17T15:42:43;13.00;95.40
17053;DHT22;8643;48.824;11.422;2024-03-17T15:45:12;13.10;95.90
17053;DHT22;8643;48.824;11.422;2024-03-17T15:47:40;13.10;96.30
17053;DHT22;8643;48.824;11.422;2024-03-17T15:50:08;13.00;96.40
17053;DHT22;8643;48.824;11.422;2024-03-17T15:52:38;13.00;96.70
17053;DHT22;8643;48.824;11.422;2024-03-17T15:55:08;13.00;97.30
17053;DHT22;8643;48.824;11.422;2024-03-17T15:57:36;12.80;96.50
17053;DHT22;8643;48.824;11.422;2024-03-17T16:00:04;12.80;96.90
17053;DHT22;8643;48.824;11.422;2024-03-17T16:02:40;12.80;97.70
17053;DHT22;8643;48.824;11.422;2024-03-17T16:05:12;12.80;99.00
17053;DHT22;8643;48.824;11.422;2024-03-17T16:07:43;12.70;99.90
17053;DHT22;8643;48.824;11.422;2024-03-17T16:10:16;12.70;99.90